sensor_id;sensor_type;location;lat;lon;timestamp;pressure;altitude;pressure_sealevel;temperature;humidity
81151;BME280;70629;-26.026;27.976;2023-09-07T00:01:21;86688.66;;;11.60;34.57
81151;BME280;70629;-26.026;27.976;2023-09-07T00:02:57;86682.47;;;11.57;34.84
81151;BME280;70629;-26.026;27.976;2023-09-07T00:04:32;86689.03;;;11.68;34.83
81151;BME280;70629;-26.026;27.976;2023-09-07T00:06:08;86687.25;;;11.59;34.10
81151;BME280;70629;-26.026;27.976;2023-09-07T00:07:43;86683.44;;;11.64;33.52
81151;BME280;70629;-26.026;27.976;2023-09-07T00:09:18;86681.19;;;11.44;35.40
81151;BME280;70629;-26.026;27.976;2023-09-07T00:11:03;86676.91;;;11.39;34.50
81151;BME280;70629;-26.026;27.976;2023-09-07T00:12:38;86692.47;;;11.27;34.96
81151;BME280;70629;-26.026;27.976;2023-09-07T00:14:13;86678.59;;;11.33;34.18
81151;BME280;70629;-26.026;27.976;2023-09-07T00:15:48;86680.00;;;11.34;33.77
81151;BME280;70629;-26.026;27.976;2023-09-07T00:17:23;86673.03;;;11.42;35.51
81151;BME280;70629;-26.026;27.976;2023-09-07T00:18:58;86667.22;;;11.48;37.00
81151;BME280;70629;-26.026;27.976;2023-09-07T00:20:34;86670.13;;;11.52;36.58
81151;BME280;70629;-26.026;27.976;2023-09-07T00:22:09;86678.72;;;11.49;36.43
81151;BME280;70629;-26.026;27.976;2023-09-07T00:23:44;86680.59;;;11.46;36.69
81151;BME280;70629;-26.026;27.976;2023-09-07T00:25:19;86688.16;;;11.50;36.04
81151;BME280;70629;-26.026;27.976;2023-09-07T00:26:55;86689.66;;;11.53;37.07
81151;BME280;70629;-26.026;27.976;2023-09-07T00:28:30;86688.09;;;11.20;37.24
81151;BME280;70629;-26.026;27.976;2023-09-07T00:30:06;86690.28;;;11.24;38.01
81151;BME280;70629;-26.026;27.976;2023-09-07T00:31:43;86686.06;;;11.21;38.42
81151;BME280;70629;-26.026;27.976;2023-09-07T00:33:20;86689.78;;;11.41;36.05
81151;BME280;70629;-26.026;27.976;2023-09-07T00:34:55;86689.69;;;11.39;37.21
81151;BME280;70629;-26.026;27.976;2023-09-07T00:36:30;86696.94;;;11.09;37.68
81151;BME280;70629;-26.026;27.976;2023-09-07T00:38:05;86699.41;;;10.78;38.51
81151;BME280;70629;-26.026;27.976;2023-09-07T00:39:40;86688.13;;;10.68;39.33
81151;BME280;70629;-26.026;27.976;2023-09-07T00:41:15;86679.09;;;11.02;39.07
81151;BME280;70629;-26.026;27.976;2023-09-07T00:42:50;86677.59;;;10.99;41.46
81151;BME280;70629;-26.026;27.976;2023-09-07T00:44:24;86679.50;;;10.83;40.10
81151;BME280;70629;-26.026;27.976;2023-09-07T00:45:59;86689.31;;;10.65;39.84
81151;BME280;70629;-26.026;27.976;2023-09-07T00:47:34;86685.84;;;10.62;39.22
81151;BME280;70629;-26.026;27.976;2023-09-07T00:49:11;86677.56;;;10.58;38.39
81151;BME280;70629;-26.026;27.976;2023-09-07T00:50:47;86686.53;;;10.63;39.70
81151;BME280;70629;-26.026;27.976;2023-09-07T00:52:22;86678.25;;;10.59;40.81
81151;BME280;70629;-26.026;27.976;2023-09-07T00:53:58;86682.06;;;10.81;39.98
81151;BME280;70629;-26.026;27.976;2023-09-07T00:55:34;86680.53;;;10.50;39.50
81151;BME280;70629;-26.026;27.976;2023-09-07T00:57:10;86672.84;;;10.45;40.13
81151;BME280;70629;-26.026;27.976;2023-09-07T00:58:45;86673.28;;;10.67;39.54
81151;BME280;70629;-26.026;27.976;2023-09-07T01:00:20;86673.09;;;10.76;40.46
81151;BME280;70629;-26.026;27.976;2023-09-07T01:01:56;86667.53;;;10.86;40.84
81151;BME280;70629;-26.026;27.976;2023-09-07T01:03:31;86662.72;;;10.71;40.38
81151;BME280;70629;-26.026;27.976;2023-09-07T01:05:06;86666.50;;;10.52;40.39
81151;BME280;70629;-26.026;27.976;2023-09-07T01:06:47;86668.41;;;10.63;41.65
81151;BME280;70629;-26.026;27.976;2023-09-07T01:08:28;86671.38;;;10.69;41.58
81151;BME280;70629;-26.026;27.976;2023-09-07T01:10:06;86660.56;;;10.28;41.08
81151;BME280;70629;-26.026;27.976;2023-09-07T01:11:42;86658.06;;;10.32;43.33
81151;BME280;70629;-26.026;27.976;2023-09-07T01:13:19;86650.44;;;10.15;42.36
81151;BME280;70629;-26.026;27.976;2023-09-07T01:14:54;86655.28;;;10.30;41.71
81151;BME280;70629;-26.026;27.976;2023-09-07T01:16:30;86648.97;;;10.65;41.37
81151;BME280;70629;-26.026;27.976;2023-09-07T01:18:09;86651.38;;;10.59;42.40
81151;BME280;70629;-26.026;27.976;2023-09-07T01:19:59;86655.88;;;10.03;41.61
81151;BME280;70629;-26.026;27.976;2023-09-07T01:21:40;86653.34;;;9.94;42.69
81151;BME280;70629;-26.026;27.976;2023-09-07T01:23:16;86657.97;;;10.30;41.80
81151;BME280;70629;-26.026;27.976;2023-09-07T01:24:51;86660.53;;;10.53;40.93
81151;BME280;70629;-26.026;27.976;2023-09-07T01:26:27;86659.25;;;10.68;40.18
81151;BME280;70629;-26.026;27.976;2023-09-07T01:28:02;86652.59;;;9.80;42.10
81151;BME280;70629;-26.026;27.976;2023-09-07T01:29:37;86649.75;;;9.89;42.66
81151;BME280;70629;-26.026;27.976;2023-09-07T01:31:12;86656.19;;;9.84;42.98
81151;BME280;70629;-26.026;27.976;2023-09-07T01:32:47;86661.31;;;9.92;43.21
81151;BME280;70629;-26.026;27.976;2023-09-07T01:34:24;86655.81;;;9.90;43.57
81151;BME280;70629;-26.026;27.976;2023-09-07T01:35:59;86659.50;;;9.71;43.21
81151;BME280;70629;-26.026;27.976;2023-09-07T01:37:34;86658.94;;;9.98;42.02
81151;BME280;70629;-26.026;27.976;2023-09-07T01:39:10;86657.38;;;10.06;43.43
81151;BME280;70629;-26.026;27.976;2023-09-07T01:40:45;86660.78;;;10.07;42.10
81151;BME280;70629;-26.026;27.976;2023-09-07T01:42:20;86657.75;;;10.01;41.72
81151;BME280;70629;-26.026;27.976;2023-09-07T01:43:56;86659.00;;;9.86;42.13
81151;BME280;70629;-26.026;27.976;2023-09-07T01:45:31;86655.78;;;10.01;42.31
81151;BME280;70629;-26.026;27.976;2023-09-07T01:47:06;86660.59;;;9.91;42.66
81151;BME280;70629;-26.026;27.976;2023-09-07T01:48:41;86657.00;;;10.37;41.55
81151;BME280;70629;-26.026;27.976;2023-09-07T01:50:19;86660.09;;;10.45;40.68
81151;BME280;70629;-26.026;27.976;2023-09-07T01:51:54;86663.66;;;10.36;41.08
81151;BME280;70629;-26.026;27.976;2023-09-07T01:53:28;86660.75;;;10.32;39.29
81151;BME280;70629;-26.026;27.976;2023-09-07T01:55:04;86664.34;;;10.37;40.22
81151;BME280;70629;-26.026;27.976;2023-09-07T01:56:39;86659.69;;;10.37;40.96
81151;BME280;70629;-26.026;27.976;2023-09-07T01:58:15;86654.72;;;10.45;41.78
81151;BME280;70629;-26.026;27.976;2023-09-07T01:59:50;86667.56;;;10.47;41.42
81151;BME280;70629;-26.026;27.976;2023-09-07T02:01:27;86666.25;;;10.34;40.54
81151;BME280;70629;-26.026;27.976;2023-09-07T02:03:05;86657.44;;;10.20;41.06
81151;BME280;70629;-26.026;27.976;2023-09-07T02:04:40;86663.75;;;10.25;39.53
81151;BME280;70629;-26.026;27.976;2023-09-07T02:06:18;86660.66;;;10.30;39.42
81151;BME280;70629;-26.026;27.976;2023-09-07T02:07:53;86657.25;;;10.16;39.72
81151;BME280;70629;-26.026;27.976;2023-09-07T02:09:28;86666.84;;;10.33;40.26
81151;BME280;70629;-26.026;27.976;2023-09-07T02:11:05;86658.38;;;10.13;40.61
81151;BME280;70629;-26.026;27.976;2023-09-07T02:12:40;86664.03;;;10.05;39.38
81151;BME280;70629;-26.026;27.976;2023-09-07T02:14:15;86665.91;;;10.03;40.41
81151;BME280;70629;-26.026;27.976;2023-09-07T02:15:50;86670.53;;;10.14;38.63
81151;BME280;70629;-26.026;27.976;2023-09-07T02:17:25;86666.09;;;10.19;39.18
81151;BME280;70629;-26.026;27.976;2023-09-07T02:19:03;86666.16;;;10.07;39.30
81151;BME280;70629;-26.026;27.976;2023-09-07T02:20:38;86667.22;;;10.02;39.51
81151;BME280;70629;-26.026;27.976;2023-09-07T02:22:13;86666.19;;;9.95;40.81
81151;BME280;70629;-26.026;27.976;2023-09-07T02:23:48;86666.34;;;9.86;39.56
81151;BME280;70629;-26.026;27.976;2023-09-07T02:25:23;86667.00;;;9.36;41.81
81151;BME280;70629;-26.026;27.976;2023-09-07T02:26:59;86665.22;;;9.40;41.01
81151;BME280;70629;-26.026;27.976;2023-09-07T02:28:34;86670.84;;;9.33;42.21
81151;BME280;70629;-26.026;27.976;2023-09-07T02:30:09;86672.50;;;9.26;41.42
81151;BME280;70629;-26.026;27.976;2023-09-07T02:31:44;86669.41;;;9.43;40.24
81151;BME280;70629;-26.026;27.976;2023-09-07T02:33:19;86677.53;;;9.57;40.32
81151;BME280;70629;-26.026;27.976;2023-09-07T02:34:54;86677.16;;;9.25;41.74
81151;BME280;70629;-26.026;27.976;2023-09-07T02:36:29;86682.03;;;9.41;40.83
81151;BME280;70629;-26.026;27.976;2023-09-07T02:38:04;86679.28;;;9.27;41.20
81151;BME280;70629;-26.026;27.976;2023-09-07T02:39:40;86686.75;;;9.17;41.25
81151;BME280;70629;-26.026;27.976;2023-09-07T02:41:15;86691.50;;;9.30;40.46
81151;BME280;70629;-26.026;27.976;2023-09-07T02:42:50;86684.28;;;9.21;41.85
81151;BME280;70629;-26.026;27.976;2023-09-07T02:44:25;86695.13;;;9.35;41.62
81151;BME280;70629;-26.026;27.976;2023-09-07T02:46:00;86701.34;;;8.79;42.44
81151;BME280;70629;-26.026;27.976;2023-09-07T02:47:35;86703.31;;;9.02;41.51
81151;BME280;70629;-26.026;27.976;2023-09-07T02:49:10;86701.66;;;9.20;40.85
81151;BME280;70629;-26.026;27.976;2023-09-07T02:50:45;86704.72;;;8.91;42.35
81151;BME280;70629;-26.026;27.976;2023-09-07T02:52:23;86713.38;;;8.90;40.75
81151;BME280;70629;-26.026;27.976;2023-09-07T02:53:58;86705.44;;;8.92;42.87
81151;BME280;70629;-26.026;27.976;2023-09-07T02:55:34;86708.31;;;9.19;40.45
81151;BME280;70629;-26.026;27.976;2023-09-07T02:57:12;86705.53;;;9.17;40.13
81151;BME280;70629;-26.026;27.976;2023-09-07T02:58:47;86714.28;;;9.17;41.25
81151;BME280;70629;-26.026;27.976;2023-09-07T03:00:22;86708.66;;;9.25;43.25
81151;BME280;70629;-26.026;27.976;2023-09-07T03:01:57;86708.00;;;9.13;43.56
81151;BME280;70629;-26.026;27.976;2023-09-07T03:03:32;86702.38;;;9.20;43.26
81151;BME280;70629;-26.026;27.976;2023-09-07T03:05:08;86710.16;;;9.28;43.42
81151;BME280;70629;-26.026;27.976;2023-09-07T03:06:43;86701.31;;;9.25;43.48
81151;BME280;70629;-26.026;27.976;2023-09-07T03:08:18;86704.47;;;9.22;43.05
81151;BME280;70629;-26.026;27.976;2023-09-07T03:09:53;86706.09;;;9.15;42.27
81151;BME280;70629;-26.026;27.976;2023-09-07T03:11:29;86713.59;;;8.94;40.70
81151;BME280;70629;-26.026;27.976;2023-09-07T03:13:08;86711.38;;;8.78;41.08
81151;BME280;70629;-26.026;27.976;2023-09-07T03:14:43;86715.78;;;9.09;44.39
81151;BME280;70629;-26.026;27.976;2023-09-07T03:16:23;86711.69;;;9.19;42.70
81151;BME280;70629;-26.026;27.976;2023-09-07T03:17:58;86714.03;;;9.13;43.17
81151;BME280;70629;-26.026;27.976;2023-09-07T03:19:33;86713.34;;;9.24;41.47
81151;BME280;70629;-26.026;27.976;2023-09-07T03:21:08;86720.34;;;8.95;41.83
81151;BME280;70629;-26.026;27.976;2023-09-07T03:22:44;86724.56;;;8.74;42.79
81151;BME280;70629;-26.026;27.976;2023-09-07T03:24:19;86726.50;;;8.62;44.49
81151;BME280;70629;-26.026;27.976;2023-09-07T03:25:54;86721.50;;;8.68;43.82
81151;BME280;70629;-26.026;27.976;2023-09-07T03:27:29;86726.41;;;8.72;44.07
81151;BME280;70629;-26.026;27.976;2023-09-07T03:29:03;86731.28;;;8.41;45.54
81151;BME280;70629;-26.026;27.976;2023-09-07T03:30:39;86732.91;;;8.57;45.44
81151;BME280;70629;-26.026;27.976;2023-09-07T03:32:14;86729.78;;;8.61;44.92
81151;BME280;70629;-26.026;27.976;2023-09-07T03:33:49;86733.41;;;8.77;45.11
81151;BME280;70629;-26.026;27.976;2023-09-07T03:35:24;86739.91;;;8.51;45.28
81151;BME280;70629;-26.026;27.976;2023-09-07T03:36:59;86746.84;;;8.89;43.57
81151;BME280;70629;-26.026;27.976;2023-09-07T03:38:34;86746.22;;;8.55;45.83
81151;BME280;70629;-26.026;27.976;2023-09-07T03:40:09;86751.13;;;8.59;43.02
81151;BME280;70629;-26.026;27.976;2023-09-07T03:41:44;86749.50;;;8.65;44.35
81151;BME280;70629;-26.026;27.976;2023-09-07T03:43:20;86749.97;;;8.97;43.39
81151;BME280;70629;-26.026;27.976;2023-09-07T03:44:55;86750.13;;;8.31;45.12
81151;BME280;70629;-26.026;27.976;2023-09-07T03:46:31;86762.06;;;8.51;45.21
81151;BME280;70629;-26.026;27.976;2023-09-07T03:48:06;86763.00;;;8.67;44.16
81151;BME280;70629;-26.026;27.976;2023-09-07T03:49:41;86763.81;;;8.25;44.18
81151;BME280;70629;-26.026;27.976;2023-09-07T03:51:16;86763.97;;;8.27;45.00
81151;BME280;70629;-26.026;27.976;2023-09-07T03:52:51;86765.16;;;8.36;45.02
81151;BME280;70629;-26.026;27.976;2023-09-07T03:54:26;86772.81;;;8.74;44.51
81151;BME280;70629;-26.026;27.976;2023-09-07T03:56:02;86771.78;;;8.79;44.76
81151;BME280;70629;-26.026;27.976;2023-09-07T03:57:40;86761.59;;;8.55;45.88
81151;BME280;70629;-26.026;27.976;2023-09-07T03:59:15;86765.78;;;8.46;44.85
81151;BME280;70629;-26.026;27.976;2023-09-07T04:00:50;86771.19;;;8.81;44.07
81151;BME280;70629;-26.026;27.976;2023-09-07T04:02:25;86771.03;;;8.56;46.29
81151;BME280;70629;-26.026;27.976;2023-09-07T04:04:01;86764.03;;;8.51;45.84
81151;BME280;70629;-26.026;27.976;2023-09-07T04:05:39;86780.13;;;8.62;44.76
81151;BME280;70629;-26.026;27.976;2023-09-07T04:07:14;86769.59;;;8.43;44.99
81151;BME280;70629;-26.026;27.976;2023-09-07T04:08:49;86771.88;;;8.81;45.05
81151;BME280;70629;-26.026;27.976;2023-09-07T04:10:24;86775.59;;;8.76;44.65
81151;BME280;70629;-26.026;27.976;2023-09-07T04:11:59;86783.56;;;8.30;46.31
81151;BME280;70629;-26.026;27.976;2023-09-07T04:13:35;86775.34;;;8.49;48.30
81151;BME280;70629;-26.026;27.976;2023-09-07T04:15:10;86776.41;;;8.56;44.72
81151;BME280;70629;-26.026;27.976;2023-09-07T04:16:46;86775.16;;;8.80;46.58
81151;BME280;70629;-26.026;27.976;2023-09-07T04:18:21;86766.03;;;8.50;45.58
81151;BME280;70629;-26.026;27.976;2023-09-07T04:19:56;86773.88;;;8.69;44.86
81151;BME280;70629;-26.026;27.976;2023-09-07T04:21:31;86778.66;;;8.82;46.20
81151;BME280;70629;-26.026;27.976;2023-09-07T04:23:06;86783.53;;;8.74;45.44
81151;BME280;70629;-26.026;27.976;2023-09-07T04:24:41;86780.72;;;8.61;45.49
81151;BME280;70629;-26.026;27.976;2023-09-07T04:26:16;86781.56;;;8.75;45.98
81151;BME280;70629;-26.026;27.976;2023-09-07T04:27:51;86780.06;;;8.84;46.40
81151;BME280;70629;-26.026;27.976;2023-09-07T04:29:27;86783.28;;;8.59;46.15
81151;BME280;70629;-26.026;27.976;2023-09-07T04:31:03;86773.84;;;8.58;46.32
81151;BME280;70629;-26.026;27.976;2023-09-07T04:32:38;86781.53;;;8.63;44.38
81151;BME280;70629;-26.026;27.976;2023-09-07T04:34:13;86784.34;;;8.77;43.67
81151;BME280;70629;-26.026;27.976;2023-09-07T04:35:48;86789.63;;;8.87;42.92
81151;BME280;70629;-26.026;27.976;2023-09-07T04:37:23;86785.09;;;9.36;41.30
81151;BME280;70629;-26.026;27.976;2023-09-07T04:38:58;86791.63;;;9.21;41.18
81151;BME280;70629;-26.026;27.976;2023-09-07T04:40:33;86784.75;;;9.30;41.65
81151;BME280;70629;-26.026;27.976;2023-09-07T04:42:08;86784.84;;;9.43;42.12
81151;BME280;70629;-26.026;27.976;2023-09-07T04:43:43;86786.38;;;9.35;41.54
81151;BME280;70629;-26.026;27.976;2023-09-07T04:45:18;86779.50;;;9.32;42.63
81151;BME280;70629;-26.026;27.976;2023-09-07T04:46:55;86767.84;;;9.27;43.12
81151;BME280;70629;-26.026;27.976;2023-09-07T04:48:30;86774.00;;;9.30;41.93
81151;BME280;70629;-26.026;27.976;2023-09-07T04:50:06;86777.13;;;9.38;41.41
81151;BME280;70629;-26.026;27.976;2023-09-07T04:51:41;86773.63;;;9.47;43.22
81151;BME280;70629;-26.026;27.976;2023-09-07T04:53:16;86787.97;;;9.51;42.14
81151;BME280;70629;-26.026;27.976;2023-09-07T04:54:51;86777.38;;;9.53;41.54
81151;BME280;70629;-26.026;27.976;2023-09-07T04:56:26;86787.97;;;9.51;42.55
81151;BME280;70629;-26.026;27.976;2023-09-07T04:58:03;86774.91;;;9.69;41.62
81151;BME280;70629;-26.026;27.976;2023-09-07T04:59:41;86778.38;;;9.72;40.89
81151;BME280;70629;-26.026;27.976;2023-09-07T05:01:16;86781.63;;;9.82;41.45
81151;BME280;70629;-26.026;27.976;2023-09-07T05:02:51;86789.97;;;9.39;42.57
81151;BME280;70629;-26.026;27.976;2023-09-07T05:04:26;86794.66;;;9.27;43.50
81151;BME280;70629;-26.026;27.976;2023-09-07T05:06:02;86794.88;;;9.19;44.04
81151;BME280;70629;-26.026;27.976;2023-09-07T05:07:39;86796.41;;;9.22;43.18
81151;BME280;70629;-26.026;27.976;2023-09-07T05:09:15;86804.34;;;9.44;41.09
81151;BME280;70629;-26.026;27.976;2023-09-07T05:11:00;86800.16;;;9.41;41.91
81151;BME280;70629;-26.026;27.976;2023-09-07T05:12:36;86807.81;;;9.58;42.01
81151;BME280;70629;-26.026;27.976;2023-09-07T05:14:11;86809.44;;;9.75;42.61
81151;BME280;70629;-26.026;27.976;2023-09-07T05:15:50;86805.66;;;9.91;40.66
81151;BME280;70629;-26.026;27.976;2023-09-07T05:17:25;86818.88;;;9.87;41.69
81151;BME280;70629;-26.026;27.976;2023-09-07T05:19:00;86818.97;;;9.89;41.59
81151;BME280;70629;-26.026;27.976;2023-09-07T05:20:35;86817.59;;;9.77;41.12
81151;BME280;70629;-26.026;27.976;2023-09-07T05:22:13;86819.56;;;9.99;41.04
81151;BME280;70629;-26.026;27.976;2023-09-07T05:23:48;86813.34;;;10.08;42.83
81151;BME280;70629;-26.026;27.976;2023-09-07T05:25:23;86817.31;;;10.19;40.82
81151;BME280;70629;-26.026;27.976;2023-09-07T05:26:58;86811.22;;;10.30;40.51
81151;BME280;70629;-26.026;27.976;2023-09-07T05:28:33;86817.78;;;10.52;41.97
81151;BME280;70629;-26.026;27.976;2023-09-07T05:30:09;86816.03;;;10.45;40.84
81151;BME280;70629;-26.026;27.976;2023-09-07T05:31:45;86812.41;;;10.52;41.82
81151;BME280;70629;-26.026;27.976;2023-09-07T05:33:20;86813.25;;;10.43;38.46
81151;BME280;70629;-26.026;27.976;2023-09-07T05:34:55;86821.16;;;10.78;38.30
81151;BME280;70629;-26.026;27.976;2023-09-07T05:36:30;86809.56;;;10.87;38.22
81151;BME280;70629;-26.026;27.976;2023-09-07T05:38:05;86814.28;;;10.75;38.70
81151;BME280;70629;-26.026;27.976;2023-09-07T05:39:40;86820.03;;;10.95;39.13
81151;BME280;70629;-26.026;27.976;2023-09-07T05:41:15;86815.75;;;11.04;40.59
81151;BME280;70629;-26.026;27.976;2023-09-07T05:42:50;86821.16;;;11.04;38.47
81151;BME280;70629;-26.026;27.976;2023-09-07T05:44:26;86814.16;;;10.98;38.68
81151;BME280;70629;-26.026;27.976;2023-09-07T05:46:01;86816.00;;;11.21;37.45
81151;BME280;70629;-26.026;27.976;2023-09-07T05:47:36;86817.63;;;11.40;37.37
81151;BME280;70629;-26.026;27.976;2023-09-07T05:49:11;86816.53;;;11.59;35.68
81151;BME280;70629;-26.026;27.976;2023-09-07T05:50:49;86820.97;;;11.79;34.05
81151;BME280;70629;-26.026;27.976;2023-09-07T05:52:24;86827.47;;;11.74;36.49
81151;BME280;70629;-26.026;27.976;2023-09-07T05:53:59;86820.41;;;11.81;35.51
81151;BME280;70629;-26.026;27.976;2023-09-07T05:55:34;86829.66;;;11.92;34.30
81151;BME280;70629;-26.026;27.976;2023-09-07T05:57:09;86825.75;;;12.08;36.45
81151;BME280;70629;-26.026;27.976;2023-09-07T05:58:44;86838.25;;;12.02;35.43
81151;BME280;70629;-26.026;27.976;2023-09-07T06:00:20;86835.97;;;12.10;36.81
81151;BME280;70629;-26.026;27.976;2023-09-07T06:01:55;86835.75;;;12.19;35.98
81151;BME280;70629;-26.026;27.976;2023-09-07T06:03:30;86833.94;;;12.24;35.14
81151;BME280;70629;-26.026;27.976;2023-09-07T06:05:07;86825.09;;;12.51;29.94
81151;BME280;70629;-26.026;27.976;2023-09-07T06:06:43;86834.56;;;12.65;30.91
81151;BME280;70629;-26.026;27.976;2023-09-07T06:08:18;86832.66;;;12.68;33.52
81151;BME280;70629;-26.026;27.976;2023-09-07T06:09:52;86836.09;;;12.84;35.98
81151;BME280;70629;-26.026;27.976;2023-09-07T06:11:27;86848.78;;;12.82;37.33
81151;BME280;70629;-26.026;27.976;2023-09-07T06:13:03;86849.78;;;12.88;32.78
81151;BME280;70629;-26.026;27.976;2023-09-07T06:14:38;86847.28;;;12.92;35.57
81151;BME280;70629;-26.026;27.976;2023-09-07T06:16:13;86849.31;;;13.07;27.91
81151;BME280;70629;-26.026;27.976;2023-09-07T06:17:48;86850.06;;;13.24;28.37
81151;BME280;70629;-26.026;27.976;2023-09-07T06:19:24;86846.78;;;13.41;27.01
81151;BME280;70629;-26.026;27.976;2023-09-07T06:20:59;86848.03;;;13.53;26.67
81151;BME280;70629;-26.026;27.976;2023-09-07T06:22:34;86850.91;;;13.57;27.20
81151;BME280;70629;-26.026;27.976;2023-09-07T06:24:09;86852.03;;;13.68;25.84
81151;BME280;70629;-26.026;27.976;2023-09-07T06:25:44;86847.84;;;13.81;25.81
81151;BME280;70629;-26.026;27.976;2023-09-07T06:27:19;86845.75;;;13.95;24.42
81151;BME280;70629;-26.026;27.976;2023-09-07T06:28:54;86845.06;;;14.10;23.39
81151;BME280;70629;-26.026;27.976;2023-09-07T06:30:29;86847.66;;;14.08;27.56
81151;BME280;70629;-26.026;27.976;2023-09-07T06:32:04;86847.22;;;14.14;24.34
81151;BME280;70629;-26.026;27.976;2023-09-07T06:33:40;86853.16;;;14.26;25.21
81151;BME280;70629;-26.026;27.976;2023-09-07T06:35:15;86846.75;;;14.35;23.18
81151;BME280;70629;-26.026;27.976;2023-09-07T06:36:50;86847.22;;;14.45;22.97
81151;BME280;70629;-26.026;27.976;2023-09-07T06:38:25;86849.09;;;14.58;21.93
81151;BME280;70629;-26.026;27.976;2023-09-07T06:39:59;86848.81;;;14.68;22.98
81151;BME280;70629;-26.026;27.976;2023-09-07T06:41:35;86851.53;;;14.85;22.47
81151;BME280;70629;-26.026;27.976;2023-09-07T06:43:10;86861.13;;;14.88;21.89
81151;BME280;70629;-26.026;27.976;2023-09-07T06:44:45;86869.91;;;15.05;22.32
81151;BME280;70629;-26.026;27.976;2023-09-07T06:46:20;86866.94;;;15.16;21.07
81151;BME280;70629;-26.026;27.976;2023-09-07T06:47:55;86865.47;;;15.31;21.76
81151;BME280;70629;-26.026;27.976;2023-09-07T06:49:30;86867.38;;;15.62;21.88
81151;BME280;70629;-26.026;27.976;2023-09-07T06:51:06;86866.19;;;15.67;21.77
81151;BME280;70629;-26.026;27.976;2023-09-07T06:52:42;86866.16;;;15.85;20.55
81151;BME280;70629;-26.026;27.976;2023-09-07T06:54:18;86860.03;;;15.84;22.17
81151;BME280;70629;-26.026;27.976;2023-09-07T06:56:00;86855.91;;;16.01;21.10
81151;BME280;70629;-26.026;27.976;2023-09-07T06:57:36;86855.69;;;16.14;21.41
81151;BME280;70629;-26.026;27.976;2023-09-07T06:59:11;86856.13;;;16.27;22.11
81151;BME280;70629;-26.026;27.976;2023-09-07T07:00:46;86863.91;;;16.56;19.76
81151;BME280;70629;-26.026;27.976;2023-09-07T07:02:22;86858.03;;;16.61;21.50
81151;BME280;70629;-26.026;27.976;2023-09-07T07:03:57;86854.44;;;16.57;21.87
81151;BME280;70629;-26.026;27.976;2023-09-07T07:05:33;86867.59;;;16.84;23.85
81151;BME280;70629;-26.026;27.976;2023-09-07T07:07:08;86865.28;;;16.96;22.33
81151;BME280;70629;-26.026;27.976;2023-09-07T07:08:43;86865.06;;;17.32;21.30
81151;BME280;70629;-26.026;27.976;2023-09-07T07:10:18;86863.66;;;17.52;21.04
81151;BME280;70629;-26.026;27.976;2023-09-07T07:11:53;86871.09;;;17.52;22.90
81151;BME280;70629;-26.026;27.976;2023-09-07T07:13:28;86859.66;;;17.34;18.34
81151;BME280;70629;-26.026;27.976;2023-09-07T07:15:05;86862.41;;;17.55;18.68
81151;BME280;70629;-26.026;27.976;2023-09-07T07:16:40;86864.97;;;17.51;17.49
81151;BME280;70629;-26.026;27.976;2023-09-07T07:18:15;86865.41;;;17.87;17.52
81151;BME280;70629;-26.026;27.976;2023-09-07T07:19:50;86864.72;;;17.87;17.15
81151;BME280;70629;-26.026;27.976;2023-09-07T07:21:26;86864.72;;;17.87;17.23
81151;BME280;70629;-26.026;27.976;2023-09-07T07:23:00;86861.38;;;17.88;16.71
81151;BME280;70629;-26.026;27.976;2023-09-07T07:24:36;86866.66;;;18.32;16.99
81151;BME280;70629;-26.026;27.976;2023-09-07T07:26:11;86866.91;;;18.40;15.93
81151;BME280;70629;-26.026;27.976;2023-09-07T07:27:46;86865.28;;;18.80;17.81
81151;BME280;70629;-26.026;27.976;2023-09-07T07:29:21;86860.06;;;18.63;15.36
81151;BME280;70629;-26.026;27.976;2023-09-07T07:30:56;86868.06;;;18.57;14.98
81151;BME280;70629;-26.026;27.976;2023-09-07T07:32:32;86866.63;;;18.54;14.42
81151;BME280;70629;-26.026;27.976;2023-09-07T07:34:07;86863.53;;;18.65;14.44
81151;BME280;70629;-26.026;27.976;2023-09-07T07:35:42;86865.22;;;19.04;14.88
81151;BME280;70629;-26.026;27.976;2023-09-07T07:37:17;86862.59;;;19.08;14.39
81151;BME280;70629;-26.026;27.976;2023-09-07T07:38:52;86861.72;;;19.55;14.83
81151;BME280;70629;-26.026;27.976;2023-09-07T07:40:27;86856.22;;;19.53;14.94
81151;BME280;70629;-26.026;27.976;2023-09-07T07:42:02;86859.53;;;19.80;14.84
81151;BME280;70629;-26.026;27.976;2023-09-07T07:43:39;86864.72;;;19.97;14.07
81151;BME280;70629;-26.026;27.976;2023-09-07T07:45:14;86867.19;;;20.17;14.33
81151;BME280;70629;-26.026;27.976;2023-09-07T07:46:49;86868.91;;;20.32;16.33
81151;BME280;70629;-26.026;27.976;2023-09-07T07:48:24;86859.63;;;20.13;14.34
81151;BME280;70629;-26.026;27.976;2023-09-07T07:49:59;86859.47;;;20.37;15.58
81151;BME280;70629;-26.026;27.976;2023-09-07T07:51:34;86856.03;;;20.71;14.79
81151;BME280;70629;-26.026;27.976;2023-09-07T07:53:09;86851.63;;;20.55;15.22
81151;BME280;70629;-26.026;27.976;2023-09-07T07:54:44;86855.41;;;20.74;14.72
81151;BME280;70629;-26.026;27.976;2023-09-07T07:56:19;86850.94;;;20.91;15.19
81151;BME280;70629;-26.026;27.976;2023-09-07T07:57:54;86856.34;;;21.23;17.09
81151;BME280;70629;-26.026;27.976;2023-09-07T07:59:30;86857.53;;;21.14;16.51
81151;BME280;70629;-26.026;27.976;2023-09-07T08:01:16;86850.47;;;21.02;14.91
81151;BME280;70629;-26.026;27.976;2023-09-07T08:02:51;86850.91;;;20.89;14.65
81151;BME280;70629;-26.026;27.976;2023-09-07T08:04:26;86848.38;;;21.37;18.12
81151;BME280;70629;-26.026;27.976;2023-09-07T08:06:02;86856.78;;;21.11;15.22
81151;BME280;70629;-26.026;27.976;2023-09-07T08:07:37;86842.91;;;21.37;14.77
81151;BME280;70629;-26.026;27.976;2023-09-07T08:09:13;86842.66;;;21.65;15.92
81151;BME280;70629;-26.026;27.976;2023-09-07T08:10:48;86840.94;;;21.43;15.42
81151;BME280;70629;-26.026;27.976;2023-09-07T08:12:23;86834.44;;;22.07;17.56
81151;BME280;70629;-26.026;27.976;2023-09-07T08:13:58;86835.44;;;21.83;16.31
81151;BME280;70629;-26.026;27.976;2023-09-07T08:15:34;86845.31;;;22.03;15.37